sensor_id;sensor_type;location;lat;lon;timestamp;P1;durP1;ratioP1;P2;durP2;ratioP2
35990;SDS011;22064;42.672;23.282;2022-12-17T00:02:39;73.25;;;34.42;;
35990;SDS011;22064;42.672;23.282;2022-12-17T00:05:23;67.57;;;31.13;;
35990;SDS011;22064;42.672;23.282;2022-12-17T00:08:07;70.20;;;33.03;;
35990;SDS011;22064;42.672;23.282;2022-12-17T00:10:51;73.68;;;35.75;;
35990;SDS011;22064;42.672;23.282;2022-12-17T00:13:36;70.60;;;33.47;;
35990;SDS011;22064;42.672;23.282;2022-12-17T00:16:20;72.60;;;34.70;;
35990;SDS011;22064;42.672;23.282;2022-12-17T00:19:04;79.32;;;35.00;;
35990;SDS011;22064;42.672;23.282;2022-12-17T00:21:48;74.25;;;33.90;;
35990;SDS011;22064;42.672;23.282;2022-12-17T00:24:31;72.68;;;34.63;;
35990;SDS011;22064;42.672;23.282;2022-12-17T00:27:15;78.78;;;36.33;;
35990;SDS011;22064;42.672;23.282;2022-12-17T00:30:11;67.68;;;32.33;;
35990;SDS011;22064;42.672;23.282;2022-12-17T00:32:55;77.32;;;36.15;;
35990;SDS011;22064;42.672;23.282;2022-12-17T00:35:39;72.13;;;33.90;;
35990;SDS011;22064;42.672;23.282;2022-12-17T00:38:23;72.18;;;33.50;;
35990;SDS011;22064;42.672;23.282;2022-12-17T00:41:07;75.03;;;33.28;;
35990;SDS011;22064;42.672;23.282;2022-12-17T00:43:51;72.72;;;32.90;;
35990;SDS011;22064;42.672;23.282;2022-12-17T00:46:35;70.30;;;32.53;;
35990;SDS011;22064;42.672;23.282;2022-12-17T00:49:19;68.60;;;32.20;;
35990;SDS011;22064;42.672;23.282;2022-12-17T00:52:03;69.00;;;32.47;;
35990;SDS011;22064;42.672;23.282;2022-12-17T00:54:47;67.88;;;31.45;;
35990;SDS011;22064;42.672;23.282;2022-12-17T00:57:42;68.00;;;31.23;;
35990;SDS011;22064;42.672;23.282;2022-12-17T01:00:26;64.38;;;31.33;;
35990;SDS011;22064;42.672;23.282;2022-12-17T01:03:10;66.25;;;31.10;;
35990;SDS011;22064;42.672;23.282;2022-12-17T01:05:55;69.80;;;32.10;;
35990;SDS011;22064;42.672;23.282;2022-12-17T01:08:43;68.72;;;32.03;;
35990;SDS011;22064;42.672;23.282;2022-12-17T01:11:27;65.10;;;29.40;;
35990;SDS011;22064;42.672;23.282;2022-12-17T01:14:12;67.40;;;29.55;;
35990;SDS011;22064;42.672;23.282;2022-12-17T01:16:56;65.13;;;30.98;;
35990;SDS011;22064;42.672;23.282;2022-12-17T01:19:39;70.18;;;30.70;;
35990;SDS011;22064;42.672;23.282;2022-12-17T01:22:23;68.47;;;31.52;;
35990;SDS011;22064;42.672;23.282;2022-12-17T01:25:07;71.10;;;32.05;;
35990;SDS011;22064;42.672;23.282;2022-12-17T01:27:51;71.70;;;31.55;;
35990;SDS011;22064;42.672;23.282;2022-12-17T01:30:35;66.85;;;30.38;;
35990;SDS011;22064;42.672;23.282;2022-12-17T01:33:20;69.63;;;30.52;;
35990;SDS011;22064;42.672;23.282;2022-12-17T01:36:04;65.63;;;29.27;;
35990;SDS011;22064;42.672;23.282;2022-12-17T01:38:48;62.70;;;27.90;;
35990;SDS011;22064;42.672;23.282;2022-12-17T01:41:32;61.65;;;28.75;;
35990;SDS011;22064;42.672;23.282;2022-12-17T01:50:53;60.67;;;27.60;;
35990;SDS011;22064;42.672;23.282;2022-12-17T01:53:43;56.70;;;26.48;;
35990;SDS011;22064;42.672;23.282;2022-12-17T01:56:31;61.20;;;27.30;;
35990;SDS011;22064;42.672;23.282;2022-12-17T01:59:17;56.90;;;27.45;;
35990;SDS011;22064;42.672;23.282;2022-12-17T02:02:05;58.22;;;25.27;;
35990;SDS011;22064;42.672;23.282;2022-12-17T02:04:49;58.60;;;25.80;;
35990;SDS011;22064;42.672;23.282;2022-12-17T02:13:33;51.15;;;24.20;;
35990;SDS011;22064;42.672;23.282;2022-12-17T02:16:23;49.20;;;24.08;;
35990;SDS011;22064;42.672;23.282;2022-12-17T02:22:13;52.17;;;23.92;;
35990;SDS011;22064;42.672;23.282;2022-12-17T02:25:19;46.50;;;22.67;;
35990;SDS011;22064;42.672;23.282;2022-12-17T02:28:09;44.50;;;23.98;;
35990;SDS011;22064;42.672;23.282;2022-12-17T02:30:54;46.35;;;22.88;;
35990;SDS011;22064;42.672;23.282;2022-12-17T02:33:40;39.55;;;20.10;;
35990;SDS011;22064;42.672;23.282;2022-12-17T02:36:25;44.40;;;21.10;;
35990;SDS011;22064;42.672;23.282;2022-12-17T02:39:09;42.13;;;19.95;;
35990;SDS011;22064;42.672;23.282;2022-12-17T02:41:54;44.55;;;20.73;;
35990;SDS011;22064;42.672;23.282;2022-12-17T02:44:41;42.67;;;20.70;;
35990;SDS011;22064;42.672;23.282;2022-12-17T02:47:26;42.72;;;19.63;;
35990;SDS011;22064;42.672;23.282;2022-12-17T02:50:11;36.22;;;18.98;;
35990;SDS011;22064;42.672;23.282;2022-12-17T02:52:57;41.47;;;21.77;;
35990;SDS011;22064;42.672;23.282;2022-12-17T02:55:42;44.63;;;21.23;;
35990;SDS011;22064;42.672;23.282;2022-12-17T02:58:30;42.13;;;20.42;;
35990;SDS011;22064;42.672;23.282;2022-12-17T03:01:15;38.92;;;20.35;;
35990;SDS011;22064;42.672;23.282;2022-12-17T03:04:01;39.58;;;19.90;;
35990;SDS011;22064;42.672;23.282;2022-12-17T03:06:46;38.47;;;20.30;;
35990;SDS011;22064;42.672;23.282;2022-12-17T03:09:29;41.92;;;19.67;;
35990;SDS011;22064;42.672;23.282;2022-12-17T03:12:13;42.15;;;20.60;;
35990;SDS011;22064;42.672;23.282;2022-12-17T03:14:57;42.50;;;20.35;;
35990;SDS011;22064;42.672;23.282;2022-12-17T03:17:41;38.10;;;19.38;;
35990;SDS011;22064;42.672;23.282;2022-12-17T03:20:26;39.75;;;20.67;;
35990;SDS011;22064;42.672;23.282;2022-12-17T03:23:10;38.13;;;19.27;;
35990;SDS011;22064;42.672;23.282;2022-12-17T03:26:00;40.45;;;19.45;;
35990;SDS011;22064;42.672;23.282;2022-12-17T03:28:46;41.95;;;20.70;;
35990;SDS011;22064;42.672;23.282;2022-12-17T03:31:31;39.40;;;20.48;;
35990;SDS011;22064;42.672;23.282;2022-12-17T03:34:16;38.78;;;19.75;;
35990;SDS011;22064;42.672;23.282;2022-12-17T03:37:03;39.83;;;18.98;;
35990;SDS011;22064;42.672;23.282;2022-12-17T03:39:47;35.92;;;18.52;;
35990;SDS011;22064;42.672;23.282;2022-12-17T03:42:31;36.05;;;18.52;;
35990;SDS011;22064;42.672;23.282;2022-12-17T03:45:15;33.75;;;17.20;;
35990;SDS011;22064;42.672;23.282;2022-12-17T03:48:06;34.45;;;17.15;;
35990;SDS011;22064;42.672;23.282;2022-12-17T03:50:52;33.22;;;17.73;;
35990;SDS011;22064;42.672;23.282;2022-12-17T03:53:37;36.75;;;16.98;;
35990;SDS011;22064;42.672;23.282;2022-12-17T03:56:21;36.42;;;17.42;;
35990;SDS011;22064;42.672;23.282;2022-12-17T03:59:06;33.55;;;16.50;;
35990;SDS011;22064;42.672;23.282;2022-12-17T04:01:50;34.00;;;17.42;;
35990;SDS011;22064;42.672;23.282;2022-12-17T04:04:34;34.42;;;15.57;;
35990;SDS011;22064;42.672;23.282;2022-12-17T04:07:18;34.42;;;15.55;;
35990;SDS011;22064;42.672;23.282;2022-12-17T04:10:02;32.95;;;16.05;;
35990;SDS011;22064;42.672;23.282;2022-12-17T04:12:46;30.98;;;14.93;;
35990;SDS011;22064;42.672;23.282;2022-12-17T04:15:31;32.72;;;14.68;;
35990;SDS011;22064;42.672;23.282;2022-12-17T04:18:14;30.83;;;14.65;;
35990;SDS011;22064;42.672;23.282;2022-12-17T04:20:59;31.20;;;15.85;;
35990;SDS011;22064;42.672;23.282;2022-12-17T04:23:42;27.77;;;13.35;;
35990;SDS011;22064;42.672;23.282;2022-12-17T04:26:26;29.85;;;14.07;;
35990;SDS011;22064;42.672;23.282;2022-12-17T04:29:10;27.33;;;12.18;;
35990;SDS011;22064;42.672;23.282;2022-12-17T04:31:54;25.08;;;13.30;;
35990;SDS011;22064;42.672;23.282;2022-12-17T04:34:38;28.27;;;12.93;;
35990;SDS011;22064;42.672;23.282;2022-12-17T04:37:22;27.60;;;12.98;;
35990;SDS011;22064;42.672;23.282;2022-12-17T04:40:07;24.75;;;12.25;;
35990;SDS011;22064;42.672;23.282;2022-12-17T04:42:51;23.55;;;11.95;;
35990;SDS011;22064;42.672;23.282;2022-12-17T04:45:35;25.08;;;11.38;;
35990;SDS011;22064;42.672;23.282;2022-12-17T04:48:19;27.67;;;11.82;;
35990;SDS011;22064;42.672;23.282;2022-12-17T04:51:03;27.40;;;12.50;;
35990;SDS011;22064;42.672;23.282;2022-12-17T04:53:47;26.40;;;12.70;;
35990;SDS011;22064;42.672;23.282;2022-12-17T04:56:31;26.17;;;11.57;;
35990;SDS011;22064;42.672;23.282;2022-12-17T04:59:15;27.63;;;12.55;;
35990;SDS011;22064;42.672;23.282;2022-12-17T05:01:59;25.40;;;11.50;;
35990;SDS011;22064;42.672;23.282;2022-12-17T05:04:43;23.95;;;11.63;;
35990;SDS011;22064;42.672;23.282;2022-12-17T05:07:27;23.75;;;11.15;;
35990;SDS011;22064;42.672;23.282;2022-12-17T05:10:11;22.42;;;10.32;;
35990;SDS011;22064;42.672;23.282;2022-12-17T05:12:58;23.10;;;11.07;;
35990;SDS011;22064;42.672;23.282;2022-12-17T05:15:42;24.52;;;11.40;;
35990;SDS011;22064;42.672;23.282;2022-12-17T05:18:26;21.33;;;11.27;;
35990;SDS011;22064;42.672;23.282;2022-12-17T05:21:10;21.95;;;10.82;;
35990;SDS011;22064;42.672;23.282;2022-12-17T05:23:54;22.05;;;10.35;;
35990;SDS011;22064;42.672;23.282;2022-12-17T05:26:38;21.15;;;10.82;;
35990;SDS011;22064;42.672;23.282;2022-12-17T05:29:22;21.70;;;10.70;;
35990;SDS011;22064;42.672;23.282;2022-12-17T05:32:05;21.15;;;10.05;;
35990;SDS011;22064;42.672;23.282;2022-12-17T05:34:49;24.20;;;10.57;;
35990;SDS011;22064;42.672;23.282;2022-12-17T05:37:33;22.63;;;11.15;;
35990;SDS011;22064;42.672;23.282;2022-12-17T05:40:17;23.40;;;11.20;;
35990;SDS011;22064;42.672;23.282;2022-12-17T05:43:03;23.58;;;10.75;;
35990;SDS011;22064;42.672;23.282;2022-12-17T05:45:48;24.33;;;11.05;;
35990;SDS011;22064;42.672;23.282;2022-12-17T05:48:33;22.25;;;10.48;;
35990;SDS011;22064;42.672;23.282;2022-12-17T05:51:21;21.50;;;10.50;;
35990;SDS011;22064;42.672;23.282;2022-12-17T05:54:06;21.42;;;10.50;;
35990;SDS011;22064;42.672;23.282;2022-12-17T05:56:50;23.55;;;12.00;;
35990;SDS011;22064;42.672;23.282;2022-12-17T05:59:35;22.65;;;12.18;;
35990;SDS011;22064;42.672;23.282;2022-12-17T06:02:19;26.05;;;12.77;;
35990;SDS011;22064;42.672;23.282;2022-12-17T06:05:04;26.13;;;12.20;;
35990;SDS011;22064;42.672;23.282;2022-12-17T06:07:48;25.70;;;11.38;;
35990;SDS011;22064;42.672;23.282;2022-12-17T06:10:32;27.95;;;12.80;;
35990;SDS011;22064;42.672;23.282;2022-12-17T06:13:16;24.77;;;12.07;;
35990;SDS011;22064;42.672;23.282;2022-12-17T06:16:00;25.23;;;12.55;;
35990;SDS011;22064;42.672;23.282;2022-12-17T06:18:44;24.65;;;12.52;;
35990;SDS011;22064;42.672;23.282;2022-12-17T06:21:28;25.85;;;12.68;;
35990;SDS011;22064;42.672;23.282;2022-12-17T06:24:12;30.70;;;15.80;;
35990;SDS011;22064;42.672;23.282;2022-12-17T06:26:56;31.50;;;16.52;;
35990;SDS011;22064;42.672;23.282;2022-12-17T06:29:40;29.40;;;15.73;;
35990;SDS011;22064;42.672;23.282;2022-12-17T06:32:24;31.77;;;15.43;;
35990;SDS011;22064;42.672;23.282;2022-12-17T06:35:08;28.52;;;15.30;;
35990;SDS011;22064;42.672;23.282;2022-12-17T06:37:59;31.13;;;15.30;;
35990;SDS011;22064;42.672;23.282;2022-12-17T06:40:44;29.77;;;15.38;;
35990;SDS011;22064;42.672;23.282;2022-12-17T06:43:29;30.50;;;14.88;;
35990;SDS011;22064;42.672;23.282;2022-12-17T06:46:13;31.52;;;16.23;;
35990;SDS011;22064;42.672;23.282;2022-12-17T06:48:57;27.50;;;14.60;;
35990;SDS011;22064;42.672;23.282;2022-12-17T06:51:41;27.60;;;15.32;;
35990;SDS011;22064;42.672;23.282;2022-12-17T06:54:24;26.92;;;14.90;;
35990;SDS011;22064;42.672;23.282;2022-12-17T06:57:08;27.38;;;14.10;;
35990;SDS011;22064;42.672;23.282;2022-12-17T06:59:52;23.63;;;12.05;;
35990;SDS011;22064;42.672;23.282;2022-12-17T07:02:36;23.58;;;12.07;;
35990;SDS011;22064;42.672;23.282;2022-12-17T07:05:20;30.20;;;16.35;;
35990;SDS011;22064;42.672;23.282;2022-12-17T07:08:04;42.67;;;21.85;;
35990;SDS011;22064;42.672;23.282;2022-12-17T07:10:48;46.58;;;26.75;;
35990;SDS011;22064;42.672;23.282;2022-12-17T07:13:32;44.55;;;24.00;;
35990;SDS011;22064;42.672;23.282;2022-12-17T07:16:16;41.50;;;23.92;;
35990;SDS011;22064;42.672;23.282;2022-12-17T07:19:00;39.00;;;21.50;;
35990;SDS011;22064;42.672;23.282;2022-12-17T07:21:44;40.53;;;23.90;;
35990;SDS011;22064;42.672;23.282;2022-12-17T07:24:28;37.85;;;21.70;;
35990;SDS011;22064;42.672;23.282;2022-12-17T07:27:12;39.20;;;21.27;;
35990;SDS011;22064;42.672;23.282;2022-12-17T07:29:56;36.47;;;20.45;;
35990;SDS011;22064;42.672;23.282;2022-12-17T07:32:40;28.52;;;16.20;;
35990;SDS011;22064;42.672;23.282;2022-12-17T07:35:40;21.63;;;9.38;;
35990;SDS011;22064;42.672;23.282;2022-12-17T07:38:24;20.00;;;8.63;;
35990;SDS011;22064;42.672;23.282;2022-12-17T07:41:18;12.15;;;4.88;;
35990;SDS011;22064;42.672;23.282;2022-12-17T07:44:03;6.50;;;3.97;;
35990;SDS011;22064;42.672;23.282;2022-12-17T07:46:48;7.80;;;4.07;;
35990;SDS011;22064;42.672;23.282;2022-12-17T07:49:32;5.60;;;3.30;;
35990;SDS011;22064;42.672;23.282;2022-12-17T07:52:16;7.35;;;3.13;;
35990;SDS011;22064;42.672;23.282;2022-12-17T07:55:01;6.32;;;3.10;;
35990;SDS011;22064;42.672;23.282;2022-12-17T07:57:45;6.70;;;2.80;;
35990;SDS011;22064;42.672;23.282;2022-12-17T08:00:29;7.28;;;3.13;;
35990;SDS011;22064;42.672;23.282;2022-12-17T08:03:13;6.75;;;2.72;;
35990;SDS011;22064;42.672;23.282;2022-12-17T08:05:57;4.93;;;2.38;;
35990;SDS011;22064;42.672;23.282;2022-12-17T08:08:42;6.72;;;2.40;;
35990;SDS011;22064;42.672;23.282;2022-12-17T08:11:26;4.65;;;1.42;;
35990;SDS011;22064;42.672;23.282;2022-12-17T08:14:11;6.03;;;1.80;;
35990;SDS011;22064;42.672;23.282;2022-12-17T08:16:55;4.45;;;1.63;;
35990;SDS011;22064;42.672;23.282;2022-12-17T08:19:39;4.10;;;1.90;;
35990;SDS011;22064;42.672;23.282;2022-12-17T08:22:23;4.07;;;1.90;;
35990;SDS011;22064;42.672;23.282;2022-12-17T08:25:07;3.17;;;1.63;;
35990;SDS011;22064;42.672;23.282;2022-12-17T08:27:58;1.98;;;1.30;;
35990;SDS011;22064;42.672;23.282;2022-12-17T08:30:46;4.13;;;1.75;;
35990;SDS011;22064;42.672;23.282;2022-12-17T08:33:31;5.50;;;1.60;;
35990;SDS011;22064;42.672;23.282;2022-12-17T08:36:15;3.10;;;1.83;;
35990;SDS011;22064;42.672;23.282;2022-12-17T08:38:59;2.70;;;1.92;;
35990;SDS011;22064;42.672;23.282;2022-12-17T08:41:43;4.25;;;1.90;;
35990;SDS011;22064;42.672;23.282;2022-12-17T08:44:27;4.53;;;2.38;;
35990;SDS011;22064;42.672;23.282;2022-12-17T08:47:11;4.57;;;1.58;;
35990;SDS011;22064;42.672;23.282;2022-12-17T08:49:56;2.13;;;1.33;;
35990;SDS011;22064;42.672;23.282;2022-12-17T08:52:40;8.90;;;2.28;;
35990;SDS011;22064;42.672;23.282;2022-12-17T08:55:24;16.15;;;7.03;;
35990;SDS011;22064;42.672;23.282;2022-12-17T08:58:07;19.63;;;8.90;;
35990;SDS011;22064;42.672;23.282;2022-12-17T09:00:52;19.63;;;9.38;;
35990;SDS011;22064;42.672;23.282;2022-12-17T09:03:36;21.33;;;10.38;;
35990;SDS011;22064;42.672;23.282;2022-12-17T09:06:20;25.02;;;10.55;;
35990;SDS011;22064;42.672;23.282;2022-12-17T09:09:03;23.02;;;10.73;;
35990;SDS011;22064;42.672;23.282;2022-12-17T09:11:48;22.70;;;10.70;;
35990;SDS011;22064;42.672;23.282;2022-12-17T09:14:32;19.13;;;9.05;;
35990;SDS011;22064;42.672;23.282;2022-12-17T09:17:16;18.20;;;7.93;;
35990;SDS011;22064;42.672;23.282;2022-12-17T09:20:00;14.68;;;6.32;;
35990;SDS011;22064;42.672;23.282;2022-12-17T09:22:44;10.88;;;5.32;;
35990;SDS011;22064;42.672;23.282;2022-12-17T09:25:28;12.43;;;5.32;;
35990;SDS011;22064;42.672;23.282;2022-12-17T09:28:12;11.73;;;5.35;;
35990;SDS011;22064;42.672;23.282;2022-12-17T09:30:59;11.93;;;5.70;;
35990;SDS011;22064;42.672;23.282;2022-12-17T09:33:44;15.02;;;6.25;;
35990;SDS011;22064;42.672;23.282;2022-12-17T09:36:28;10.60;;;4.68;;
35990;SDS011;22064;42.672;23.282;2022-12-17T09:39:12;15.00;;;4.95;;
35990;SDS011;22064;42.672;23.282;2022-12-17T09:45:08;9.00;;;4.22;;
35990;SDS011;22064;42.672;23.282;2022-12-17T09:48:02;7.88;;;3.90;;
35990;SDS011;22064;42.672;23.282;2022-12-17T09:50:56;10.10;;;3.75;;
35990;SDS011;22064;42.672;23.282;2022-12-17T09:53:48;4.85;;;3.00;;
35990;SDS011;22064;42.672;23.282;2022-12-17T09:56:33;3.30;;;2.03;;
35990;SDS011;22064;42.672;23.282;2022-12-17T10:02:06;3.45;;;2.10;;
35990;SDS011;22064;42.672;23.282;2022-12-17T10:04:55;4.75;;;2.08;;
35990;SDS011;22064;42.672;23.282;2022-12-17T10:07:41;5.25;;;2.53;;
35990;SDS011;22064;42.672;23.282;2022-12-17T10:10:29;5.53;;;2.30;;
35990;SDS011;22064;42.672;23.282;2022-12-17T10:13:23;5.00;;;2.20;;
35990;SDS011;22064;42.672;23.282;2022-12-17T10:16:19;6.05;;;2.05;;
35990;SDS011;22064;42.672;23.282;2022-12-17T10:19:41;8.13;;;2.30;;
35990;SDS011;22064;42.672;23.282;2022-12-17T10:22:22;7.78;;;2.60;;
35990;SDS011;22064;42.672;23.282;2022-12-17T10:25:16;6.53;;;2.28;;
35990;SDS011;22064;42.672;23.282;2022-12-17T10:28:10;7.38;;;2.50;;
35990;SDS011;22064;42.672;23.282;2022-12-17T10:30:55;5.15;;;2.58;;
35990;SDS011;22064;42.672;23.282;2022-12-17T10:33:39;3.78;;;1.90;;
35990;SDS011;22064;42.672;23.282;2022-12-17T10:36:24;3.70;;;1.40;;
35990;SDS011;22064;42.672;23.282;2022-12-17T10:39:17;3.92;;;1.65;;
35990;SDS011;22064;42.672;23.282;2022-12-17T10:45:28;4.50;;;2.10;;
35990;SDS011;22064;42.672;23.282;2022-12-17T10:54:30;2.50;;;1.75;;
35990;SDS011;22064;42.672;23.282;2022-12-17T11:00:21;2.47;;;1.30;;
35990;SDS011;22064;42.672;23.282;2022-12-17T11:03:21;2.50;;;0.98;;
35990;SDS011;22064;42.672;23.282;2022-12-17T11:06:10;1.55;;;0.80;;
35990;SDS011;22064;42.672;23.282;2022-12-17T11:08:57;1.17;;;0.90;;
35990;SDS011;22064;42.672;23.282;2022-12-17T11:11:43;1.52;;;1.00;;
35990;SDS011;22064;42.672;23.282;2022-12-17T11:14:30;1.10;;;0.82;;
35990;SDS011;22064;42.672;23.282;2022-12-17T11:17:20;1.20;;;1.10;;
35990;SDS011;22064;42.672;23.282;2022-12-17T11:20:06;1.98;;;0.95;;
35990;SDS011;22064;42.672;23.282;2022-12-17T11:23:02;3.67;;;1.27;;
35990;SDS011;22064;42.672;23.282;2022-12-17T11:28:42;3.53;;;1.15;;
35990;SDS011;22064;42.672;23.282;2022-12-17T11:37:20;2.80;;;1.70;;
35990;SDS011;22064;42.672;23.282;2022-12-17T11:40:30;3.45;;;1.77;;
35990;SDS011;22064;42.672;23.282;2022-12-17T11:46:05;5.10;;;1.70;;
35990;SDS011;22064;42.672;23.282;2022-12-17T11:52:02;2.85;;;1.85;;
35990;SDS011;22064;42.672;23.282;2022-12-17T12:01:21;2.10;;;1.80;;
35990;SDS011;22064;42.672;23.282;2022-12-17T12:07:15;3.75;;;1.90;;
35990;SDS011;22064;42.672;23.282;2022-12-17T12:10:08;3.38;;;2.08;;
35990;SDS011;22064;42.672;23.282;2022-12-17T12:19:44;12.45;;;6.50;;
35990;SDS011;22064;42.672;23.282;2022-12-17T12:22:42;11.63;;;5.78;;
35990;SDS011;22064;42.672;23.282;2022-12-17T12:32:00;12.82;;;5.78;;
35990;SDS011;22064;42.672;23.282;2022-12-17T12:34:54;11.07;;;5.53;;
35990;SDS011;22064;42.672;23.282;2022-12-17T12:37:40;13.73;;;5.55;;
35990;SDS011;22064;42.672;23.282;2022-12-17T12:43:23;13.85;;;5.97;;
35990;SDS011;22064;42.672;23.282;2022-12-17T12:49:37;12.95;;;5.60;;
35990;SDS011;22064;42.672;23.282;2022-12-17T12:52:27;13.38;;;6.20;;
35990;SDS011;22064;42.672;23.282;2022-12-17T12:55:12;12.60;;;6.03;;
35990;SDS011;22064;42.672;23.282;2022-12-17T12:57:57;12.88;;;5.82;;
35990;SDS011;22064;42.672;23.282;2022-12-17T13:03:37;15.02;;;6.20;;
35990;SDS011;22064;42.672;23.282;2022-12-17T13:12:45;15.67;;;7.53;;
35990;SDS011;22064;42.672;23.282;2022-12-17T13:14:49;18.08;;;7.55;;
35990;SDS011;22064;42.672;23.282;2022-12-17T13:17:30;18.98;;;8.93;;
35990;SDS011;22064;42.672;23.282;2022-12-17T13:24:48;21.45;;;10.15;;
35990;SDS011;22064;42.672;23.282;2022-12-17T13:27:28;18.60;;;8.63;;
35990;SDS011;22064;42.672;23.282;2022-12-17T13:32:49;18.13;;;8.55;;
35990;SDS011;22064;42.672;23.282;2022-12-17T13:41:32;23.38;;;9.90;;
35990;SDS011;22064;42.672;23.282;2022-12-17T13:44:21;19.00;;;9.38;;
35990;SDS011;22064;42.672;23.282;2022-12-17T13:46:47;21.63;;;10.88;;
35990;SDS011;22064;42.672;23.282;2022-12-17T13:51:46;23.35;;;10.25;;
35990;SDS011;22064;42.672;23.282;2022-12-17T13:54:16;18.42;;;10.02;;
35990;SDS011;22064;42.672;23.282;2022-12-17T13:56:44;21.05;;;9.35;;
35990;SDS011;22064;42.672;23.282;2022-12-17T13:59:16;18.15;;;8.55;;
35990;SDS011;22064;42.672;23.282;2022-12-17T14:01:46;20.95;;;8.43;;
35990;SDS011;22064;42.672;23.282;2022-12-17T14:04:20;18.30;;;7.53;;
35990;SDS011;22064;42.672;23.282;2022-12-17T14:06:53;15.57;;;7.00;;
35990;SDS011;22064;42.672;23.282;2022-12-17T14:09:23;15.07;;;6.22;;
35990;SDS011;22064;42.672;23.282;2022-12-17T14:11:56;13.82;;;6.50;;
35990;SDS011;22064;42.672;23.282;2022-12-17T14:14:44;12.65;;;6.32;;
35990;SDS011;22064;42.672;23.282;2022-12-17T14:17:18;15.05;;;6.72;;
35990;SDS011;22064;42.672;23.282;2022-12-17T14:19:46;16.73;;;7.05;;
35990;SDS011;22064;42.672;23.282;2022-12-17T14:22:18;16.15;;;7.07;;
35990;SDS011;22064;42.672;23.282;2022-12-17T14:24:52;12.18;;;6.43;;
35990;SDS011;22064;42.672;23.282;2022-12-17T14:27:22;16.15;;;7.13;;
35990;SDS011;22064;42.672;23.282;2022-12-17T14:29:50;15.90;;;7.15;;
35990;SDS011;22064;42.672;23.282;2022-12-17T14:32:29;15.93;;;7.45;;
35990;SDS011;22064;42.672;23.282;2022-12-17T14:34:57;13.27;;;6.35;;
35990;SDS011;22064;42.672;23.282;2022-12-17T14:37:25;16.80;;;7.38;;
35990;SDS011;22064;42.672;23.282;2022-12-17T14:39:51;16.73;;;8.15;;
35990;SDS011;22064;42.672;23.282;2022-12-17T14:42:23;19.05;;;8.43;;
35990;SDS011;22064;42.672;23.282;2022-12-17T14:47:19;20.30;;;10.15;;
35990;SDS011;22064;42.672;23.282;2022-12-17T14:54:48;21.08;;;9.80;;
35990;SDS011;22064;42.672;23.282;2022-12-17T14:57:18;20.35;;;10.88;;
35990;SDS011;22064;42.672;23.282;2022-12-17T14:59:46;23.35;;;11.15;;
35990;SDS011;22064;42.672;23.282;2022-12-17T15:02:24;25.65;;;11.95;;
35990;SDS011;22064;42.672;23.282;2022-12-17T15:04:52;24.33;;;12.07;;
35990;SDS011;22064;42.672;23.282;2022-12-17T15:09:51;23.35;;;11.63;;
35990;SDS011;22064;42.672;23.282;2022-12-17T15:12:21;21.45;;;11.27;;
35990;SDS011;22064;42.672;23.282;2022-12-17T15:14:48;24.05;;;12.50;;
35990;SDS011;22064;42.672;23.282;2022-12-17T15:17:15;24.92;;;13.38;;
35990;SDS011;22064;42.672;23.282;2022-12-17T15:19:41;26.42;;;13.32;;
35990;SDS011;22064;42.672;23.282;2022-12-17T15:22:12;27.35;;;14.05;;
35990;SDS011;22064;42.672;23.282;2022-12-17T15:24:40;29.20;;;14.98;;
35990;SDS011;22064;42.672;23.282;2022-12-17T15:27:07;32.78;;;15.18;;
35990;SDS011;22064;42.672;23.282;2022-12-17T15:29:36;25.55;;;13.55;;
35990;SDS011;22064;42.672;23.282;2022-12-17T15:32:01;28.38;;;14.07;;
35990;SDS011;22064;42.672;23.282;2022-12-17T15:34:27;28.75;;;14.32;;
35990;SDS011;22064;42.672;23.282;2022-12-17T15:36:53;27.85;;;14.45;;
35990;SDS011;22064;42.672;23.282;2022-12-17T15:39:18;26.15;;;15.27;;
35990;SDS011;22064;42.672;23.282;2022-12-17T15:41:43;29.50;;;16.63;;
35990;SDS011;22064;42.672;23.282;2022-12-17T15:44:27;31.90;;;16.67;;
35990;SDS011;22064;42.672;23.282;2022-12-17T15:46:53;31.67;;;17.45;;
35990;SDS011;22064;42.672;23.282;2022-12-17T15:49:18;30.92;;;17.30;;
35990;SDS011;22064;42.672;23.282;2022-12-17T15:51:45;33.67;;;18.83;;
35990;SDS011;22064;42.672;23.282;2022-12-17T15:54:10;36.70;;;19.58;;
35990;SDS011;22064;42.672;23.282;2022-12-17T15:56:36;34.85;;;20.35;;
35990;SDS011;22064;42.672;23.282;2022-12-17T15:59:01;41.83;;;23.45;;
35990;SDS011;22064;42.672;23.282;2022-12-17T16:01:27;43.92;;;22.27;;
35990;SDS011;22064;42.672;23.282;2022-12-17T16:03:52;46.20;;;23.85;;
35990;SDS011;22064;42.672;23.282;2022-12-17T16:06:18;45.72;;;27.17;;
35990;SDS011;22064;42.672;23.282;2022-12-17T16:08:44;47.63;;;28.45;;
35990;SDS011;22064;42.672;23.282;2022-12-17T16:11:10;55.90;;;33.30;;
35990;SDS011;22064;42.672;23.282;2022-12-17T16:13:37;54.80;;;31.63;;
35990;SDS011;22064;42.672;23.282;2022-12-17T16:16:03;53.50;;;31.23;;
35990;SDS011;22064;42.672;23.282;2022-12-17T16:18:29;48.22;;;28.05;;
35990;SDS011;22064;42.672;23.282;2022-12-17T16:21:05;60.53;;;35.80;;
35990;SDS011;22064;42.672;23.282;2022-12-17T16:23:32;65.15;;;40.13;;
35990;SDS011;22064;42.672;23.282;2022-12-17T16:25:58;74.82;;;43.00;;
35990;SDS011;22064;42.672;23.282;2022-12-17T16:28:25;64.97;;;38.25;;
35990;SDS011;22064;42.672;23.282;2022-12-17T16:33:34;68.93;;;38.90;;
35990;SDS011;22064;42.672;23.282;2022-12-17T16:36:01;64.88;;;38.63;;
35990;SDS011;22064;42.672;23.282;2022-12-17T16:38:28;66.40;;;37.47;;
35990;SDS011;22064;42.672;23.282;2022-12-17T16:40:57;63.90;;;37.60;;
35990;SDS011;22064;42.672;23.282;2022-12-17T16:43:25;70.85;;;41.17;;
35990;SDS011;22064;42.672;23.282;2022-12-17T16:45:52;75.03;;;44.83;;
35990;SDS011;22064;42.672;23.282;2022-12-17T16:48:19;71.25;;;41.67;;
35990;SDS011;22064;42.672;23.282;2022-12-17T16:50:46;68.32;;;41.45;;
35990;SDS011;22064;42.672;23.282;2022-12-17T16:53:12;68.57;;;42.28;;
35990;SDS011;22064;42.672;23.282;2022-12-17T16:55:41;71.93;;;42.13;;
35990;SDS011;22064;42.672;23.282;2022-12-17T16:58:09;72.50;;;42.55;;
35990;SDS011;22064;42.672;23.282;2022-12-17T17:00:35;66.57;;;38.00;;
35990;SDS011;22064;42.672;23.282;2022-12-17T17:03:01;71.93;;;42.90;;
35990;SDS011;22064;42.672;23.282;2022-12-17T17:05:29;69.72;;;41.70;;
35990;SDS011;22064;42.672;23.282;2022-12-17T17:07:57;76.47;;;42.13;;
35990;SDS011;22064;42.672;23.282;2022-12-17T17:10:23;72.60;;;43.13;;
35990;SDS011;22064;42.672;23.282;2022-12-17T17:12:52;73.55;;;41.92;;
35990;SDS011;22064;42.672;23.282;2022-12-17T17:15:18;68.95;;;40.80;;
35990;SDS011;22064;42.672;23.282;2022-12-17T17:17:44;72.20;;;41.28;;
35990;SDS011;22064;42.672;23.282;2022-12-17T17:20:10;72.35;;;42.10;;
35990;SDS011;22064;42.672;23.282;2022-12-17T17:22:36;71.28;;;43.65;;
35990;SDS011;22064;42.672;23.282;2022-12-17T17:25:02;74.72;;;44.28;;
35990;SDS011;22064;42.672;23.282;2022-12-17T17:27:29;67.07;;;42.25;;
35990;SDS011;22064;42.672;23.282;2022-12-17T17:29:55;73.75;;;44.78;;
35990;SDS011;22064;42.672;23.282;2022-12-17T17:32:22;84.18;;;51.92;;
35990;SDS011;22064;42.672;23.282;2022-12-17T17:34:48;95.60;;;57.92;;